sensor_id;sensor_type;location;lat;lon;timestamp;temperature;humidity
8882;DHT22;4477;48.736;9.176;2024-03-02T00:00:51;3.80;99.90
8882;DHT22;4477;48.736;9.176;2024-03-02T00:03:19;3.90;99.90
8882;DHT22;4477;48.736;9.176;2024-03-02T00:05:49;4.00;99.90
8882;DHT22;4477;48.736;9.176;2024-03-02T00:08:22;4.00;99.90
8882;DHT22;4477;48.736;9.176;2024-03-02T00:10:50;3.90;99.90
8882;DHT22;4477;48.736;9.176;2024-03-02T00:13:20;3.90;99.90
8882;DHT22;4477;48.736;9.176;2024-03-02T00:15:51;3.90;99.90
8882;DHT22;4477;48.736;9.176;2024-03-02T00:18:19;3.80;99.90
8882;DHT22;4477;48.736;9.176;2024-03-02T00:20:47;3.80;99.90
8882;DHT22;4477;48.736;9.176;2024-03-02T00:23:15;3.80;99.90
8882;DHT22;4477;48.736;9.176;2024-03-02T00:25:45;3.70;99.90
8882;DHT22;4477;48.736;9.176;2024-03-02T00:28:16;3.70;99.90
8882;DHT22;4477;48.736;9.176;2024-03-02T00:31:03;3.70;99.90
8882;DHT22;4477;48.736;9.176;2024-03-02T00:33:33;3.70;99.90
8882;DHT22;4477;48.736;9.176;2024-03-02T00:36:00;3.70;99.90
8882;DHT22;4477;48.736;9.176;2024-03-02T00:38:27;3.70;99.90
8882;DHT22;4477;48.736;9.176;2024-03-02T00:40:57;3.70;99.90
8882;DHT22;4477;48.736;9.176;2024-03-02T00:43:41;3.80;99.90
8882;DHT22;4477;48.736;9.176;2024-03-02T00:46:11;3.70;99.90
8882;DHT22;4477;48.736;9.176;2024-03-02T00:48:39;3.70;99.90
8882;DHT22;4477;48.736;9.176;2024-03-02T00:51:08;3.70;99.90
8882;DHT22;4477;48.736;9.176;2024-03-02T00:53:35;3.70;99.90
8882;DHT22;4477;48.736;9.176;2024-03-02T00:56:03;3.60;99.90
8882;DHT22;4477;48.736;9.176;2024-03-02T00:58:29;3.70;99.90
8882;DHT22;4477;48.736;9.176;2024-03-02T01:00:56;3.60;99.90
8882;DHT22;4477;48.736;9.176;2024-03-02T01:03:25;3.70;99.90
8882;DHT22;4477;48.736;9.176;2024-03-02T01:05:52;3.70;99.90
8882;DHT22;4477;48.736;9.176;2024-03-02T01:08:19;3.60;99.90
8882;DHT22;4477;48.736;9.176;2024-03-02T01:10:46;3.50;99.90
8882;DHT22;4477;48.736;9.176;2024-03-02T01:13:13;3.40;99.90
8882;DHT22;4477;48.736;9.176;2024-03-02T01:15:40;3.40;99.90
8882;DHT22;4477;48.736;9.176;2024-03-02T01:18:07;3.30;99.90
8882;DHT22;4477;48.736;9.176;2024-03-02T01:20:35;3.20;99.90
8882;DHT22;4477;48.736;9.176;2024-03-02T01:23:03;3.10;99.90
8882;DHT22;4477;48.736;9.176;2024-03-02T01:25:30;3.10;99.90
8882;DHT22;4477;48.736;9.176;2024-03-02T01:27:57;3.00;99.90
8882;DHT22;4477;48.736;9.176;2024-03-02T01:30:24;3.10;99.90
8882;DHT22;4477;48.736;9.176;2024-03-02T01:32:50;3.10;99.90
8882;DHT22;4477;48.736;9.176;2024-03-02T01:35:17;3.10;99.90
8882;DHT22;4477;48.736;9.176;2024-03-02T01:37:46;2.90;99.90
8882;DHT22;4477;48.736;9.176;2024-03-02T01:40:12;2.90;99.90
8882;DHT22;4477;48.736;9.176;2024-03-02T01:42:39;2.80;99.90
8882;DHT22;4477;48.736;9.176;2024-03-02T01:47:42;2.70;99.90
8882;DHT22;4477;48.736;9.176;2024-03-02T01:50:11;2.70;99.90
8882;DHT22;4477;48.736;9.176;2024-03-02T01:52:39;2.70;99.90
8882;DHT22;4477;48.736;9.176;2024-03-02T01:55:11;2.60;99.90
8882;DHT22;4477;48.736;9.176;2024-03-02T01:57:38;2.50;99.90
8882;DHT22;4477;48.736;9.176;2024-03-02T02:00:06;2.30;99.90
8882;DHT22;4477;48.736;9.176;2024-03-02T02:02:35;2.20;99.90
8882;DHT22;4477;48.736;9.176;2024-03-02T02:05:02;2.10;99.90
8882;DHT22;4477;48.736;9.176;2024-03-02T02:07:29;2.20;99.90
8882;DHT22;4477;48.736;9.176;2024-03-02T02:09:56;2.10;99.90
8882;DHT22;4477;48.736;9.176;2024-03-02T02:12:25;2.00;99.90
8882;DHT22;4477;48.736;9.176;2024-03-02T02:14:52;1.90;99.90
8882;DHT22;4477;48.736;9.176;2024-03-02T02:17:19;1.70;99.90
8882;DHT22;4477;48.736;9.176;2024-03-02T02:19:46;1.70;99.90
8882;DHT22;4477;48.736;9.176;2024-03-02T02:22:14;1.60;99.90
8882;DHT22;4477;48.736;9.176;2024-03-02T02:24:41;1.50;99.90
8882;DHT22;4477;48.736;9.176;2024-03-02T02:27:09;1.40;99.90
8882;DHT22;4477;48.736;9.176;2024-03-02T02:29:36;1.20;99.90
8882;DHT22;4477;48.736;9.176;2024-03-02T02:32:03;1.20;99.90
8882;DHT22;4477;48.736;9.176;2024-03-02T02:34:30;1.20;99.90
8882;DHT22;4477;48.736;9.176;2024-03-02T02:36:57;1.20;99.90
8882;DHT22;4477;48.736;9.176;2024-03-02T02:39:25;1.40;99.90
8882;DHT22;4477;48.736;9.176;2024-03-02T02:41:52;1.30;99.90
8882;DHT22;4477;48.736;9.176;2024-03-02T02:44:19;1.20;99.90
8882;DHT22;4477;48.736;9.176;2024-03-02T02:46:46;1.00;99.90
8882;DHT22;4477;48.736;9.176;2024-03-02T02:49:13;0.90;99.90
8882;DHT22;4477;48.736;9.176;2024-03-02T02:51:40;1.00;99.90
8882;DHT22;4477;48.736;9.176;2024-03-02T02:54:06;1.10;99.90
8882;DHT22;4477;48.736;9.176;2024-03-02T02:56:35;1.00;99.90
8882;DHT22;4477;48.736;9.176;2024-03-02T02:59:01;1.00;99.90
8882;DHT22;4477;48.736;9.176;2024-03-02T03:01:28;0.90;99.90
8882;DHT22;4477;48.736;9.176;2024-03-02T03:03:55;0.80;99.90
8882;DHT22;4477;48.736;9.176;2024-03-02T03:06:22;0.80;99.90
8882;DHT22;4477;48.736;9.176;2024-03-02T03:08:49;1.10;99.90
8882;DHT22;4477;48.736;9.176;2024-03-02T03:11:16;1.30;99.90
8882;DHT22;4477;48.736;9.176;2024-03-02T03:13:44;1.50;99.90
8882;DHT22;4477;48.736;9.176;2024-03-02T03:16:11;1.90;99.90
8882;DHT22;4477;48.736;9.176;2024-03-02T03:18:38;2.00;99.90
8882;DHT22;4477;48.736;9.176;2024-03-02T03:21:05;2.10;99.90
8882;DHT22;4477;48.736;9.176;2024-03-02T03:23:32;2.30;99.90
8882;DHT22;4477;48.736;9.176;2024-03-02T03:25:58;2.40;99.90
8882;DHT22;4477;48.736;9.176;2024-03-02T03:28:26;2.30;99.90
8882;DHT22;4477;48.736;9.176;2024-03-02T03:30:54;2.30;99.90
8882;DHT22;4477;48.736;9.176;2024-03-02T03:33:21;2.40;99.90
8882;DHT22;4477;48.736;9.176;2024-03-02T03:35:48;2.30;99.90
8882;DHT22;4477;48.736;9.176;2024-03-02T03:38:15;2.10;99.90
8882;DHT22;4477;48.736;9.176;2024-03-02T03:40:41;2.00;99.90
8882;DHT22;4477;48.736;9.176;2024-03-02T03:43:09;2.00;99.90
8882;DHT22;4477;48.736;9.176;2024-03-02T03:45:36;2.00;99.90
8882;DHT22;4477;48.736;9.176;2024-03-02T03:48:05;2.00;99.90
8882;DHT22;4477;48.736;9.176;2024-03-02T03:50:32;1.90;99.90
8882;DHT22;4477;48.736;9.176;2024-03-02T03:52:58;1.80;99.90
8882;DHT22;4477;48.736;9.176;2024-03-02T03:55:25;1.70;99.90
8882;DHT22;4477;48.736;9.176;2024-03-02T03:57:52;1.60;99.90
8882;DHT22;4477;48.736;9.176;2024-03-02T04:00:19;1.40;99.90
8882;DHT22;4477;48.736;9.176;2024-03-02T04:02:46;1.20;99.90
8882;DHT22;4477;48.736;9.176;2024-03-02T04:05:14;1.20;99.90
8882;DHT22;4477;48.736;9.176;2024-03-02T04:07:41;1.10;99.90
8882;DHT22;4477;48.736;9.176;2024-03-02T04:10:09;1.40;99.90
8882;DHT22;4477;48.736;9.176;2024-03-02T04:12:36;1.70;99.90
8882;DHT22;4477;48.736;9.176;2024-03-02T04:15:04;2.00;99.90
8882;DHT22;4477;48.736;9.176;2024-03-02T04:17:32;2.20;99.90
8882;DHT22;4477;48.736;9.176;2024-03-02T04:20:01;2.20;99.90
8882;DHT22;4477;48.736;9.176;2024-03-02T04:22:33;2.20;99.90
8882;DHT22;4477;48.736;9.176;2024-03-02T04:25:01;2.20;99.90
8882;DHT22;4477;48.736;9.176;2024-03-02T04:27:30;2.10;99.90
8882;DHT22;4477;48.736;9.176;2024-03-02T04:29:57;1.90;99.90
8882;DHT22;4477;48.736;9.176;2024-03-02T04:32:25;1.70;99.90
8882;DHT22;4477;48.736;9.176;2024-03-02T04:34:52;1.30;99.90
8882;DHT22;4477;48.736;9.176;2024-03-02T04:37:19;1.10;99.90
8882;DHT22;4477;48.736;9.176;2024-03-02T04:39:47;1.00;99.90
8882;DHT22;4477;48.736;9.176;2024-03-02T04:42:14;0.90;99.90
8882;DHT22;4477;48.736;9.176;2024-03-02T04:44:41;0.80;99.90
8882;DHT22;4477;48.736;9.176;2024-03-02T04:47:08;0.70;99.90
8882;DHT22;4477;48.736;9.176;2024-03-02T04:49:35;0.70;99.90
8882;DHT22;4477;48.736;9.176;2024-03-02T04:52:02;0.70;99.90
8882;DHT22;4477;48.736;9.176;2024-03-02T04:54:29;0.60;99.90
8882;DHT22;4477;48.736;9.176;2024-03-02T04:56:57;0.50;99.90
8882;DHT22;4477;48.736;9.176;2024-03-02T04:59:24;0.50;99.90
8882;DHT22;4477;48.736;9.176;2024-03-02T05:01:51;0.40;99.90
8882;DHT22;4477;48.736;9.176;2024-03-02T05:04:18;0.50;99.90
8882;DHT22;4477;48.736;9.176;2024-03-02T05:06:44;0.50;99.90
8882;DHT22;4477;48.736;9.176;2024-03-02T05:09:17;0.50;99.90
8882;DHT22;4477;48.736;9.176;2024-03-02T05:11:44;0.60;99.90
8882;DHT22;4477;48.736;9.176;2024-03-02T05:14:42;0.60;99.90
8882;DHT22;4477;48.736;9.176;2024-03-02T05:17:09;0.60;99.90
8882;DHT22;4477;48.736;9.176;2024-03-02T05:19:36;0.60;99.90
8882;DHT22;4477;48.736;9.176;2024-03-02T05:22:04;0.50;99.90
8882;DHT22;4477;48.736;9.176;2024-03-02T05:24:31;0.40;99.90
8882;DHT22;4477;48.736;9.176;2024-03-02T05:26:58;0.50;99.90
8882;DHT22;4477;48.736;9.176;2024-03-02T05:29:25;0.50;99.90
8882;DHT22;4477;48.736;9.176;2024-03-02T05:31:53;0.40;99.90
8882;DHT22;4477;48.736;9.176;2024-03-02T05:34:20;0.50;99.90
8882;DHT22;4477;48.736;9.176;2024-03-02T05:36:47;0.60;99.90
8882;DHT22;4477;48.736;9.176;2024-03-02T05:39:14;0.80;99.90
8882;DHT22;4477;48.736;9.176;2024-03-02T05:41:41;0.90;99.90
8882;DHT22;4477;48.736;9.176;2024-03-02T05:44:08;0.80;99.90
8882;DHT22;4477;48.736;9.176;2024-03-02T05:46:35;0.70;99.90
8882;DHT22;4477;48.736;9.176;2024-03-02T05:49:03;0.70;99.90
8882;DHT22;4477;48.736;9.176;2024-03-02T05:51:30;0.60;99.90
8882;DHT22;4477;48.736;9.176;2024-03-02T05:53:56;0.60;99.90
8882;DHT22;4477;48.736;9.176;2024-03-02T05:56:23;0.50;99.90
8882;DHT22;4477;48.736;9.176;2024-03-02T05:58:50;0.40;99.90
8882;DHT22;4477;48.736;9.176;2024-03-02T06:01:32;0.30;99.90
8882;DHT22;4477;48.736;9.176;2024-03-02T06:03:59;0.20;99.90
8882;DHT22;4477;48.736;9.176;2024-03-02T06:06:27;0.20;99.90
8882;DHT22;4477;48.736;9.176;2024-03-02T06:08:54;0.50;99.90
8882;DHT22;4477;48.736;9.176;2024-03-02T06:11:22;1.00;99.90
8882;DHT22;4477;48.736;9.176;2024-03-02T06:13:49;1.50;99.90
8882;DHT22;4477;48.736;9.176;2024-03-02T06:16:16;2.00;99.90
8882;DHT22;4477;48.736;9.176;2024-03-02T06:18:43;2.20;99.90
8882;DHT22;4477;48.736;9.176;2024-03-02T06:21:10;2.20;99.90
8882;DHT22;4477;48.736;9.176;2024-03-02T06:23:38;2.20;99.90
8882;DHT22;4477;48.736;9.176;2024-03-02T06:26:05;2.20;99.90
8882;DHT22;4477;48.736;9.176;2024-03-02T06:28:32;2.20;99.90
8882;DHT22;4477;48.736;9.176;2024-03-02T06:30:59;2.20;99.90
8882;DHT22;4477;48.736;9.176;2024-03-02T06:33:26;2.20;99.90
8882;DHT22;4477;48.736;9.176;2024-03-02T06:35:56;2.20;99.90
8882;DHT22;4477;48.736;9.176;2024-03-02T06:38:23;2.40;99.90
8882;DHT22;4477;48.736;9.176;2024-03-02T06:40:51;2.50;99.90
8882;DHT22;4477;48.736;9.176;2024-03-02T06:43:18;2.70;99.90
8882;DHT22;4477;48.736;9.176;2024-03-02T06:45:48;2.80;99.90
8882;DHT22;4477;48.736;9.176;2024-03-02T06:48:15;2.90;99.90
8882;DHT22;4477;48.736;9.176;2024-03-02T06:50:45;3.00;99.90
8882;DHT22;4477;48.736;9.176;2024-03-02T06:53:13;3.10;99.90
8882;DHT22;4477;48.736;9.176;2024-03-02T06:55:43;3.30;99.90
8882;DHT22;4477;48.736;9.176;2024-03-02T06:58:12;3.40;99.90
8882;DHT22;4477;48.736;9.176;2024-03-02T07:00:38;3.50;99.90
8882;DHT22;4477;48.736;9.176;2024-03-02T07:03:05;3.60;99.90
8882;DHT22;4477;48.736;9.176;2024-03-02T07:05:32;3.70;99.90
8882;DHT22;4477;48.736;9.176;2024-03-02T07:07:59;3.80;99.90
8882;DHT22;4477;48.736;9.176;2024-03-02T07:10:27;3.80;99.90
8882;DHT22;4477;48.736;9.176;2024-03-02T07:12:53;3.90;99.90
8882;DHT22;4477;48.736;9.176;2024-03-02T07:15:22;3.90;99.90
8882;DHT22;4477;48.736;9.176;2024-03-02T07:18:08;4.00;99.90
8882;DHT22;4477;48.736;9.176;2024-03-02T07:20:35;4.10;99.90
8882;DHT22;4477;48.736;9.176;2024-03-02T07:23:06;4.20;99.90
8882;DHT22;4477;48.736;9.176;2024-03-02T07:25:33;4.30;99.90
8882;DHT22;4477;48.736;9.176;2024-03-02T07:28:00;4.40;99.90
8882;DHT22;4477;48.736;9.176;2024-03-02T07:30:28;4.40;99.90
8882;DHT22;4477;48.736;9.176;2024-03-02T07:32:55;4.60;99.90
8882;DHT22;4477;48.736;9.176;2024-03-02T07:35:22;4.70;99.90
8882;DHT22;4477;48.736;9.176;2024-03-02T07:37:52;4.90;99.90
8882;DHT22;4477;48.736;9.176;2024-03-02T07:40:19;4.80;99.90
8882;DHT22;4477;48.736;9.176;2024-03-02T07:42:46;4.80;99.90
8882;DHT22;4477;48.736;9.176;2024-03-02T07:45:13;4.80;99.90
8882;DHT22;4477;48.736;9.176;2024-03-02T07:47:42;4.80;99.90
8882;DHT22;4477;48.736;9.176;2024-03-02T07:50:09;5.10;99.90
8882;DHT22;4477;48.736;9.176;2024-03-02T07:52:37;5.20;99.90
8882;DHT22;4477;48.736;9.176;2024-03-02T07:55:04;5.30;99.90
8882;DHT22;4477;48.736;9.176;2024-03-02T07:57:31;5.20;99.90
8882;DHT22;4477;48.736;9.176;2024-03-02T07:59:59;5.30;99.90
8882;DHT22;4477;48.736;9.176;2024-03-02T08:02:26;5.30;99.90
8882;DHT22;4477;48.736;9.176;2024-03-02T08:04:56;5.30;99.90
8882;DHT22;4477;48.736;9.176;2024-03-02T08:07:24;5.50;99.90
8882;DHT22;4477;48.736;9.176;2024-03-02T08:09:51;5.60;99.90
8882;DHT22;4477;48.736;9.176;2024-03-02T08:12:17;5.90;99.90
8882;DHT22;4477;48.736;9.176;2024-03-02T08:14:45;6.20;99.90
8882;DHT22;4477;48.736;9.176;2024-03-02T08:17:12;6.50;99.90
8882;DHT22;4477;48.736;9.176;2024-03-02T08:19:39;6.80;99.90
8882;DHT22;4477;48.736;9.176;2024-03-02T08:22:07;7.30;99.90
8882;DHT22;4477;48.736;9.176;2024-03-02T08:24:34;7.80;99.90
8882;DHT22;4477;48.736;9.176;2024-03-02T08:27:01;8.80;99.90
8882;DHT22;4477;48.736;9.176;2024-03-02T08:29:29;10.10;99.90
8882;DHT22;4477;48.736;9.176;2024-03-02T08:31:55;10.80;99.90
8882;DHT22;4477;48.736;9.176;2024-03-02T08:34:22;11.40;99.90
8882;DHT22;4477;48.736;9.176;2024-03-02T08:36:49;11.60;99.90
8882;DHT22;4477;48.736;9.176;2024-03-02T08:39:18;12.40;99.90
8882;DHT22;4477;48.736;9.176;2024-03-02T08:41:46;13.40;99.90
8882;DHT22;4477;48.736;9.176;2024-03-02T08:44:14;14.50;96.90
8882;DHT22;4477;48.736;9.176;2024-03-02T08:46:41;15.20;90.00
8882;DHT22;4477;48.736;9.176;2024-03-02T08:49:08;15.20;78.60
8882;DHT22;4477;48.736;9.176;2024-03-02T08:51:35;14.30;75.40
8882;DHT22;4477;48.736;9.176;2024-03-02T08:54:02;14.80;74.50
8882;DHT22;4477;48.736;9.176;2024-03-02T08:56:31;15.50;67.60
8882;DHT22;4477;48.736;9.176;2024-03-02T08:58:58;15.90;66.60
8882;DHT22;4477;48.736;9.176;2024-03-02T09:01:25;17.00;63.70
8882;DHT22;4477;48.736;9.176;2024-03-02T09:03:52;17.50;59.30
8882;DHT22;4477;48.736;9.176;2024-03-02T09:06:19;17.10;59.60
8882;DHT22;4477;48.736;9.176;2024-03-02T09:08:47;17.00;59.20
8882;DHT22;4477;48.736;9.176;2024-03-02T09:11:15;17.40;58.80
8882;DHT22;4477;48.736;9.176;2024-03-02T09:13:43;17.80;56.20
8882;DHT22;4477;48.736;9.176;2024-03-02T09:16:10;17.80;56.60
8882;DHT22;4477;48.736;9.176;2024-03-02T09:18:37;17.80;56.80
8882;DHT22;4477;48.736;9.176;2024-03-02T09:21:04;18.00;55.60
8882;DHT22;4477;48.736;9.176;2024-03-02T09:23:32;17.90;54.00
8882;DHT22;4477;48.736;9.176;2024-03-02T09:25:59;17.20;55.30
8882;DHT22;4477;48.736;9.176;2024-03-02T09:28:26;17.40;54.90
8882;DHT22;4477;48.736;9.176;2024-03-02T09:30:54;17.80;54.70
8882;DHT22;4477;48.736;9.176;2024-03-02T09:33:21;18.80;53.20
8882;DHT22;4477;48.736;9.176;2024-03-02T09:35:49;18.60;53.50
8882;DHT22;4477;48.736;9.176;2024-03-02T09:38:16;18.90;52.60
8882;DHT22;4477;48.736;9.176;2024-03-02T09:40:43;19.20;51.30
8882;DHT22;4477;48.736;9.176;2024-03-02T09:43:10;19.20;51.60
8882;DHT22;4477;48.736;9.176;2024-03-02T09:45:37;19.20;51.80
8882;DHT22;4477;48.736;9.176;2024-03-02T09:48:06;19.70;50.80
8882;DHT22;4477;48.736;9.176;2024-03-02T09:50:33;19.90;50.40
8882;DHT22;4477;48.736;9.176;2024-03-02T09:53:00;19.50;49.90
8882;DHT22;4477;48.736;9.176;2024-03-02T09:55:28;19.60;50.50
8882;DHT22;4477;48.736;9.176;2024-03-02T09:57:55;20.10;49.70
8882;DHT22;4477;48.736;9.176;2024-03-02T10:00:22;20.70;47.90
8882;DHT22;4477;48.736;9.176;2024-03-02T10:02:48;21.60;47.10
8882;DHT22;4477;48.736;9.176;2024-03-02T10:05:25;21.60;45.50
8882;DHT22;4477;48.736;9.176;2024-03-02T10:07:59;21.60;45.80
8882;DHT22;4477;48.736;9.176;2024-03-02T10:10:35;21.00;45.80
8882;DHT22;4477;48.736;9.176;2024-03-02T10:13:06;21.10;46.90
8882;DHT22;4477;48.736;9.176;2024-03-02T10:15:34;20.90;46.70
8882;DHT22;4477;48.736;9.176;2024-03-02T10:18:02;21.10;46.40
8882;DHT22;4477;48.736;9.176;2024-03-02T10:20:30;22.10;46.20
8882;DHT22;4477;48.736;9.176;2024-03-02T10:23:10;22.50;43.80
8882;DHT22;4477;48.736;9.176;2024-03-02T10:25:37;21.90;45.30
8882;DHT22;4477;48.736;9.176;2024-03-02T10:28:04;22.00;46.00
8882;DHT22;4477;48.736;9.176;2024-03-02T10:30:33;22.80;45.00
8882;DHT22;4477;48.736;9.176;2024-03-02T10:33:01;22.50;45.60
8882;DHT22;4477;48.736;9.176;2024-03-02T10:35:30;23.00;45.00
8882;DHT22;4477;48.736;9.176;2024-03-02T10:37:59;22.70;44.50
8882;DHT22;4477;48.736;9.176;2024-03-02T10:40:27;22.80;44.80
8882;DHT22;4477;48.736;9.176;2024-03-02T10:42:54;23.60;45.50
8882;DHT22;4477;48.736;9.176;2024-03-02T10:45:23;24.40;42.50
8882;DHT22;4477;48.736;9.176;2024-03-02T10:47:50;24.80;40.80
8882;DHT22;4477;48.736;9.176;2024-03-02T10:50:17;24.10;41.00
8882;DHT22;4477;48.736;9.176;2024-03-02T10:52:46;23.60;41.10
8882;DHT22;4477;48.736;9.176;2024-03-02T10:55:13;23.40;40.90
8882;DHT22;4477;48.736;9.176;2024-03-02T10:57:50;23.50;41.60
8882;DHT22;4477;48.736;9.176;2024-03-02T11:00:19;22.80;44.50
8882;DHT22;4477;48.736;9.176;2024-03-02T11:02:51;22.30;43.40
8882;DHT22;4477;48.736;9.176;2024-03-02T11:05:26;23.00;42.10
8882;DHT22;4477;48.736;9.176;2024-03-02T11:08:00;23.40;44.50
8882;DHT22;4477;48.736;9.176;2024-03-02T11:10:35;24.10;43.10
8882;DHT22;4477;48.736;9.176;2024-03-02T11:13:05;24.10;42.10
8882;DHT22;4477;48.736;9.176;2024-03-02T11:15:35;24.40;42.70
8882;DHT22;4477;48.736;9.176;2024-03-02T11:18:04;24.60;41.80
8882;DHT22;4477;48.736;9.176;2024-03-02T11:20:36;24.90;40.40
8882;DHT22;4477;48.736;9.176;2024-03-02T11:23:09;25.40;40.30
8882;DHT22;4477;48.736;9.176;2024-03-02T11:25:36;24.90;40.40
8882;DHT22;4477;48.736;9.176;2024-03-02T11:28:05;24.60;38.50
8882;DHT22;4477;48.736;9.176;2024-03-02T11:30:51;24.90;39.90
8882;DHT22;4477;48.736;9.176;2024-03-02T11:33:25;25.60;37.60
8882;DHT22;4477;48.736;9.176;2024-03-02T11:35:53;26.30;37.00
8882;DHT22;4477;48.736;9.176;2024-03-02T11:38:21;26.30;37.30
8882;DHT22;4477;48.736;9.176;2024-03-02T11:40:48;26.00;36.90
8882;DHT22;4477;48.736;9.176;2024-03-02T11:43:15;26.00;37.50
8882;DHT22;4477;48.736;9.176;2024-03-02T11:45:43;25.90;36.70
8882;DHT22;4477;48.736;9.176;2024-03-02T11:48:11;25.90;36.30
8882;DHT22;4477;48.736;9.176;2024-03-02T11:50:41;25.90;36.20
8882;DHT22;4477;48.736;9.176;2024-03-02T11:53:10;24.80;35.90
8882;DHT22;4477;48.736;9.176;2024-03-02T11:55:39;24.10;35.90
8882;DHT22;4477;48.736;9.176;2024-03-02T11:58:07;23.50;37.10
8882;DHT22;4477;48.736;9.176;2024-03-02T12:00:34;22.50;37.30
8882;DHT22;4477;48.736;9.176;2024-03-02T12:03:03;22.30;39.20
8882;DHT22;4477;48.736;9.176;2024-03-02T12:05:31;22.80;39.90
8882;DHT22;4477;48.736;9.176;2024-03-02T12:07:59;22.70;39.90
8882;DHT22;4477;48.736;9.176;2024-03-02T12:10:26;22.80;39.40
8882;DHT22;4477;48.736;9.176;2024-03-02T12:12:58;22.40;39.50
8882;DHT22;4477;48.736;9.176;2024-03-02T12:15:26;22.70;40.70
8882;DHT22;4477;48.736;9.176;2024-03-02T12:17:54;23.60;39.20
8882;DHT22;4477;48.736;9.176;2024-03-02T12:20:22;23.60;39.50
8882;DHT22;4477;48.736;9.176;2024-03-02T12:22:50;23.40;39.70
8882;DHT22;4477;48.736;9.176;2024-03-02T12:25:19;23.80;40.30
8882;DHT22;4477;48.736;9.176;2024-03-02T12:27:46;23.80;39.50
8882;DHT22;4477;48.736;9.176;2024-03-02T12:30:16;24.20;39.40
8882;DHT22;4477;48.736;9.176;2024-03-02T12:32:43;24.20;40.50
8882;DHT22;4477;48.736;9.176;2024-03-02T12:35:11;24.60;37.90
8882;DHT22;4477;48.736;9.176;2024-03-02T12:37:44;25.20;38.40
8882;DHT22;4477;48.736;9.176;2024-03-02T12:40:11;25.90;38.40
8882;DHT22;4477;48.736;9.176;2024-03-02T12:42:39;26.80;35.60
8882;DHT22;4477;48.736;9.176;2024-03-02T12:45:07;26.80;33.00
8882;DHT22;4477;48.736;9.176;2024-03-02T12:47:36;27.30;32.70
8882;DHT22;4477;48.736;9.176;2024-03-02T12:50:05;27.60;33.10
8882;DHT22;4477;48.736;9.176;2024-03-02T12:52:33;27.30;33.00
8882;DHT22;4477;48.736;9.176;2024-03-02T12:55:01;26.40;33.90
8882;DHT22;4477;48.736;9.176;2024-03-02T12:57:29;25.70;35.00
8882;DHT22;4477;48.736;9.176;2024-03-02T13:00:00;25.30;34.80
8882;DHT22;4477;48.736;9.176;2024-03-02T13:02:28;26.00;34.00
8882;DHT22;4477;48.736;9.176;2024-03-02T13:04:58;27.00;32.80
8882;DHT22;4477;48.736;9.176;2024-03-02T13:07:25;27.20;32.80
8882;DHT22;4477;48.736;9.176;2024-03-02T13:09:53;26.80;32.50
8882;DHT22;4477;48.736;9.176;2024-03-02T13:12:22;25.50;34.70
8882;DHT22;4477;48.736;9.176;2024-03-02T13:14:49;25.90;32.80
8882;DHT22;4477;48.736;9.176;2024-03-02T13:17:17;26.30;33.20
8882;DHT22;4477;48.736;9.176;2024-03-02T13:19:53;26.60;32.40
8882;DHT22;4477;48.736;9.176;2024-03-02T13:22:23;25.70;33.80
8882;DHT22;4477;48.736;9.176;2024-03-02T13:24:50;25.40;33.30
8882;DHT22;4477;48.736;9.176;2024-03-02T13:27:17;25.70;34.00
8882;DHT22;4477;48.736;9.176;2024-03-02T13:29:45;25.70;32.80
8882;DHT22;4477;48.736;9.176;2024-03-02T13:32:13;26.10;33.80
8882;DHT22;4477;48.736;9.176;2024-03-02T13:34:40;26.60;31.60
8882;DHT22;4477;48.736;9.176;2024-03-02T13:37:06;26.10;33.10
8882;DHT22;4477;48.736;9.176;2024-03-02T13:39:35;26.80;33.00
8882;DHT22;4477;48.736;9.176;2024-03-02T13:42:06;27.40;31.30
8882;DHT22;4477;48.736;9.176;2024-03-02T13:44:34;26.90;31.90
8882;DHT22;4477;48.736;9.176;2024-03-02T13:47:00;26.90;31.60
8882;DHT22;4477;48.736;9.176;2024-03-02T13:49:27;26.20;33.10
8882;DHT22;4477;48.736;9.176;2024-03-02T13:51:59;26.20;32.70
8882;DHT22;4477;48.736;9.176;2024-03-02T13:54:28;26.40;32.10
8882;DHT22;4477;48.736;9.176;2024-03-02T13:56:57;27.00;31.50
8882;DHT22;4477;48.736;9.176;2024-03-02T13:59:25;27.50;31.10
8882;DHT22;4477;48.736;9.176;2024-03-02T14:01:52;27.80;29.70
8882;DHT22;4477;48.736;9.176;2024-03-02T14:04:19;27.60;28.90
8882;DHT22;4477;48.736;9.176;2024-03-02T14:06:46;26.90;29.80
8882;DHT22;4477;48.736;9.176;2024-03-02T14:09:13;25.90;30.40
8882;DHT22;4477;48.736;9.176;2024-03-02T14:11:40;25.00;33.70
8882;DHT22;4477;48.736;9.176;2024-03-02T14:14:08;23.80;34.70
8882;DHT22;4477;48.736;9.176;2024-03-02T14:16:35;24.60;32.10
8882;DHT22;4477;48.736;9.176;2024-03-02T14:19:02;24.90;34.00
8882;DHT22;4477;48.736;9.176;2024-03-02T14:21:30;24.50;32.80
8882;DHT22;4477;48.736;9.176;2024-03-02T14:23:56;23.60;33.70
8882;DHT22;4477;48.736;9.176;2024-03-02T14:26:23;23.30;36.10
8882;DHT22;4477;48.736;9.176;2024-03-02T14:28:50;23.30;35.60
8882;DHT22;4477;48.736;9.176;2024-03-02T14:31:19;23.10;34.80
8882;DHT22;4477;48.736;9.176;2024-03-02T14:33:45;22.90;36.40
8882;DHT22;4477;48.736;9.176;2024-03-02T14:36:12;23.20;37.10
8882;DHT22;4477;48.736;9.176;2024-03-02T14:38:39;23.70;36.20
8882;DHT22;4477;48.736;9.176;2024-03-02T14:41:06;23.90;34.50
8882;DHT22;4477;48.736;9.176;2024-03-02T14:43:33;23.80;34.40
8882;DHT22;4477;48.736;9.176;2024-03-02T14:46:00;22.80;35.00
8882;DHT22;4477;48.736;9.176;2024-03-02T14:48:28;22.50;36.20
8882;DHT22;4477;48.736;9.176;2024-03-02T14:50:56;22.20;35.70
8882;DHT22;4477;48.736;9.176;2024-03-02T14:53:23;22.20;38.00
8882;DHT22;4477;48.736;9.176;2024-03-02T14:55:50;22.50;35.30
8882;DHT22;4477;48.736;9.176;2024-03-02T14:58:17;22.70;36.50
8882;DHT22;4477;48.736;9.176;2024-03-02T15:00:44;23.20;35.10
8882;DHT22;4477;48.736;9.176;2024-03-02T15:03:11;23.10;35.20
8882;DHT22;4477;48.736;9.176;2024-03-02T15:05:40;22.90;34.90
8882;DHT22;4477;48.736;9.176;2024-03-02T15:08:07;22.40;35.20
8882;DHT22;4477;48.736;9.176;2024-03-02T15:10:34;23.10;34.40
8882;DHT22;4477;48.736;9.176;2024-03-02T15:13:01;23.40;33.80
8882;DHT22;4477;48.736;9.176;2024-03-02T15:15:28;22.50;34.10
8882;DHT22;4477;48.736;9.176;2024-03-02T15:17:55;20.90;36.10
8882;DHT22;4477;48.736;9.176;2024-03-02T15:20:22;19.80;37.20
8882;DHT22;4477;48.736;9.176;2024-03-02T15:22:50;18.80;38.80
8882;DHT22;4477;48.736;9.176;2024-03-02T15:25:17;17.70;40.70
8882;DHT22;4477;48.736;9.176;2024-03-02T15:27:44;16.20;43.10
8882;DHT22;4477;48.736;9.176;2024-03-02T15:30:11;15.30;45.20
8882;DHT22;4477;48.736;9.176;2024-03-02T15:32:38;14.70;46.10
8882;DHT22;4477;48.736;9.176;2024-03-02T15:35:05;14.20;46.40
8882;DHT22;4477;48.736;9.176;2024-03-02T15:37:32;13.90;47.60
8882;DHT22;4477;48.736;9.176;2024-03-02T15:40:01;13.70;48.60
8882;DHT22;4477;48.736;9.176;2024-03-02T15:42:32;13.40;49.00
8882;DHT22;4477;48.736;9.176;2024-03-02T15:44:59;13.30;49.20
8882;DHT22;4477;48.736;9.176;2024-03-02T15:47:26;13.20;49.80
8882;DHT22;4477;48.736;9.176;2024-03-02T15:49:53;12.90;50.80
8882;DHT22;4477;48.736;9.176;2024-03-02T15:52:20;12.80;51.30
8882;DHT22;4477;48.736;9.176;2024-03-02T15:54:47;12.60;52.30
8882;DHT22;4477;48.736;9.176;2024-03-02T15:57:15;12.50;53.30
8882;DHT22;4477;48.736;9.176;2024-03-02T15:59:42;12.30;54.00
8882;DHT22;4477;48.736;9.176;2024-03-02T16:02:09;12.20;55.00
8882;DHT22;4477;48.736;9.176;2024-03-02T16:04:36;12.10;55.70
8882;DHT22;4477;48.736;9.176;2024-03-02T16:07:05;12.00;56.40
8882;DHT22;4477;48.736;9.176;2024-03-02T16:09:32;11.90;57.10
8882;DHT22;4477;48.736;9.176;2024-03-02T16:11:58;11.90;57.80
8882;DHT22;4477;48.736;9.176;2024-03-02T16:14:27;11.80;58.10
8882;DHT22;4477;48.736;9.176;2024-03-02T16:16:54;11.70;58.80